createdAt,value
2023-08-08T00:01:25.880Z,22.86
2023-08-08T00:03:52.633Z,22.63
2023-08-08T00:06:19.280Z,22.62
2023-08-08T00:08:45.922Z,22.62
2023-08-08T00:11:12.806Z,22.59
2023-08-08T00:13:42.583Z,22.57
2023-08-08T00:16:10.051Z,22.33
2023-08-08T00:18:38.851Z,22.10
2023-08-08T00:21:05.491Z,22.52
2023-08-08T00:23:32.110Z,22.32
2023-08-08T00:26:05.546Z,22.49
2023-08-08T00:28:36.727Z,22.27
2023-08-08T00:31:03.589Z,22.37
2023-08-08T00:33:30.462Z,22.19
2023-08-08T00:36:01.661Z,22.30
2023-08-08T00:38:28.778Z,22.05
2023-08-08T00:40:55.656Z,22.25
2023-08-08T00:43:22.466Z,22.16
2023-08-08T00:45:49.165Z,21.93
2023-08-08T00:48:19.418Z,22.29
2023-08-08T00:50:51.352Z,22.00
2023-08-08T00:53:27.914Z,22.35
2023-08-08T00:56:01.664Z,22.38
2023-08-08T00:58:28.892Z,22.28
2023-08-08T01:01:02.069Z,22.26
2023-08-08T01:03:35.181Z,22.38
2023-08-08T01:06:14.720Z,22.30
2023-08-08T01:08:52.274Z,22.25
2023-08-08T01:11:19.134Z,22.30
2023-08-08T01:13:49.602Z,22.23
2023-08-08T01:16:22.874Z,22.17
2023-08-08T01:18:51.413Z,22.12
2023-08-08T01:21:18.401Z,21.89
2023-08-08T01:23:55.893Z,22.10
2023-08-08T01:26:28.088Z,22.11
2023-08-08T01:28:55.618Z,22.25
2023-08-08T01:31:22.467Z,22.26
2023-08-08T01:33:49.500Z,22.31
2023-08-08T01:36:31.853Z,22.11
2023-08-08T01:39:09.227Z,22.00
2023-08-08T01:41:39.922Z,21.97
2023-08-08T01:44:07.786Z,21.87
2023-08-08T01:46:38.874Z,21.87
2023-08-08T01:49:07.307Z,21.94
2023-08-08T01:51:36.934Z,21.52
2023-08-08T01:54:04.193Z,21.71
2023-08-08T01:56:30.913Z,21.47
2023-08-08T01:58:57.973Z,21.58
2023-08-08T02:01:24.761Z,21.50
2023-08-08T02:03:53.409Z,21.73
2023-08-08T02:06:24.566Z,21.72
2023-08-08T02:08:53.374Z,21.71
2023-08-08T02:11:20.172Z,21.80
2023-08-08T02:13:47.071Z,21.72
2023-08-08T02:16:13.700Z,21.03
2023-08-08T02:18:42.082Z,21.66
2023-08-08T02:21:09.606Z,21.74
2023-08-08T02:23:39.573Z,21.60
2023-08-08T02:26:06.378Z,21.64
2023-08-08T02:28:37.901Z,21.64
2023-08-08T02:31:14.411Z,21.59
2023-08-08T02:33:41.283Z,21.44
2023-08-08T02:36:07.924Z,21.33
2023-08-08T02:38:34.537Z,21.62
2023-08-08T02:41:01.194Z,21.40
2023-08-08T02:43:28.878Z,21.51
2023-08-08T02:45:55.561Z,21.12
2023-08-08T02:48:25.497Z,21.51
2023-08-08T02:50:52.538Z,21.37
2023-08-08T02:53:19.486Z,21.46
2023-08-08T02:55:46.263Z,21.22
2023-08-08T02:58:13.088Z,21.34
2023-08-08T03:00:39.848Z,21.13
2023-08-08T03:03:06.570Z,21.23
2023-08-08T03:05:33.254Z,21.32
2023-08-08T03:08:04.542Z,21.45
2023-08-08T03:10:31.190Z,21.46
2023-08-08T03:12:57.860Z,21.20
2023-08-08T03:15:24.672Z,21.31
2023-08-08T03:17:51.759Z,21.48
2023-08-08T03:20:18.713Z,21.46
2023-08-08T03:22:46.025Z,21.18
2023-08-08T03:25:16.115Z,21.59
2023-08-08T03:27:43.129Z,21.26
2023-08-08T03:30:12.736Z,21.20
2023-08-08T03:32:40.662Z,21.38
2023-08-08T03:35:07.638Z,21.18
2023-08-08T03:37:34.786Z,21.18
2023-08-08T03:40:01.763Z,21.24
2023-08-08T03:42:28.616Z,21.23
2023-08-08T03:44:55.463Z,21.05
2023-08-08T03:47:26.066Z,21.12
2023-08-08T03:49:56.268Z,20.99
2023-08-08T03:52:23.140Z,21.04
2023-08-08T03:54:50.101Z,20.89
2023-08-08T03:57:21.657Z,21.10
2023-08-08T03:59:48.264Z,21.00
2023-08-08T04:02:15.122Z,20.85
2023-08-08T04:04:42.186Z,20.52
2023-08-08T04:07:08.915Z,20.83
2023-08-08T04:09:38.816Z,20.78
2023-08-08T04:12:05.770Z,20.90
2023-08-08T04:14:33.926Z,21.01
2023-08-08T04:17:00.837Z,20.94
2023-08-08T04:19:27.727Z,20.96
2023-08-08T04:21:54.504Z,20.88
2023-08-08T04:24:21.269Z,20.38
2023-08-08T04:26:48.057Z,20.80
2023-08-08T04:29:17.755Z,20.79
2023-08-08T04:31:44.746Z,20.49
2023-08-08T04:34:11.552Z,20.61
2023-08-08T04:36:38.574Z,20.54
2023-08-08T04:39:05.338Z,20.63
2023-08-08T04:41:31.970Z,20.45
2023-08-08T04:43:58.604Z,20.70
2023-08-08T04:46:33.991Z,20.73
2023-08-08T04:49:08.129Z,20.63
2023-08-08T04:51:34.959Z,20.81
2023-08-08T04:54:04.490Z,20.64
2023-08-08T04:56:31.227Z,20.74
2023-08-08T04:58:58.732Z,20.82
2023-08-08T05:01:25.438Z,20.88
2023-08-08T05:03:53.858Z,20.98
2023-08-08T05:06:23.429Z,21.01
2023-08-08T05:08:52.668Z,21.00
2023-08-08T05:11:19.827Z,21.06
2023-08-08T05:13:46.745Z,20.70
2023-08-08T05:16:13.586Z,20.98
2023-08-08T05:18:46.580Z,20.96
2023-08-08T05:21:13.513Z,20.85
2023-08-08T05:23:40.511Z,20.97
2023-08-08T05:26:07.456Z,20.98
2023-08-08T05:28:34.368Z,21.00
2023-08-08T05:31:01.212Z,21.12
2023-08-08T05:33:28.004Z,21.18
2023-08-08T05:35:59.062Z,20.82
2023-08-08T05:38:31.260Z,20.90
2023-08-08T05:40:57.994Z,21.13
2023-08-08T05:43:25.193Z,21.34
2023-08-08T05:45:55.068Z,21.35
2023-08-08T05:48:21.815Z,21.10
2023-08-08T05:50:53.174Z,21.46
2023-08-08T05:53:20.064Z,21.52
2023-08-08T05:55:46.820Z,21.59
2023-08-08T05:58:17.007Z,21.65
2023-08-08T06:00:45.068Z,21.62
2023-08-08T06:03:12.002Z,21.83
2023-08-08T06:05:38.760Z,21.74
2023-08-08T06:08:08.326Z,21.82
2023-08-08T06:10:36.261Z,21.92
2023-08-08T06:13:07.619Z,22.22
2023-08-08T06:15:34.817Z,22.10
2023-08-08T06:18:02.730Z,22.20
2023-08-08T06:20:30.293Z,22.46
2023-08-08T06:22:58.587Z,22.54
2023-08-08T06:25:25.580Z,22.56
2023-08-08T06:27:53.400Z,22.53
2023-08-08T06:30:27.557Z,22.71
2023-08-08T06:32:56.577Z,22.52
2023-08-08T06:35:26.355Z,22.79
2023-08-08T06:37:53.428Z,22.84
2023-08-08T06:40:20.099Z,22.74
2023-08-08T06:42:47.090Z,22.82
2023-08-08T06:45:15.070Z,22.87
2023-08-08T06:47:41.935Z,22.87
2023-08-08T06:50:18.452Z,22.99
2023-08-08T06:52:46.602Z,23.06
2023-08-08T06:55:13.695Z,23.25
2023-08-08T06:57:48.860Z,23.36
2023-08-08T07:00:17.539Z,23.24
2023-08-08T07:02:48.225Z,23.50
2023-08-08T07:05:15.458Z,23.57
2023-08-08T07:07:42.405Z,23.59
2023-08-08T07:10:13.003Z,23.57
2023-08-08T07:12:39.814Z,23.28
2023-08-08T07:15:08.604Z,23.62
2023-08-08T07:17:35.679Z,23.67
2023-08-08T07:20:03.347Z,23.80
2023-08-08T07:22:30.084Z,23.87
2023-08-08T07:24:56.885Z,23.53
2023-08-08T07:27:29.423Z,23.77
2023-08-08T07:30:04.340Z,23.23
2023-08-08T07:32:33.249Z,23.48
2023-08-08T07:35:02.672Z,23.61
2023-08-08T07:37:29.614Z,23.53
2023-08-08T07:39:58.771Z,23.25
2023-08-08T07:42:37.709Z,23.74
2023-08-08T07:45:05.331Z,23.56
2023-08-08T07:47:32.027Z,23.72
2023-08-08T07:49:59.026Z,23.63
2023-08-08T07:52:25.823Z,23.82
2023-08-08T07:54:52.712Z,23.88
2023-08-08T07:57:21.540Z,23.88
2023-08-08T07:59:53.368Z,23.72
2023-08-08T08:02:29.053Z,23.00
2023-08-08T08:04:56.142Z,23.76
2023-08-08T08:07:23.285Z,23.85
2023-08-08T08:09:58.549Z,23.86
2023-08-08T08:12:25.465Z,24.03
2023-08-08T08:14:52.200Z,23.88
2023-08-08T08:17:21.655Z,24.18
2023-08-08T08:19:50.567Z,24.22
2023-08-08T08:22:17.449Z,24.09
2023-08-08T08:24:47.327Z,24.44
2023-08-08T08:27:14.555Z,24.45
2023-08-08T08:29:41.510Z,24.40
2023-08-08T08:32:08.513Z,24.60
2023-08-08T08:34:35.226Z,24.43
2023-08-08T08:37:03.498Z,24.73
2023-08-08T08:39:30.316Z,24.74
2023-08-08T08:42:06.336Z,24.36
2023-08-08T08:44:33.677Z,25.00
2023-08-08T08:47:05.440Z,25.06
2023-08-08T08:49:36.579Z,25.15
2023-08-08T08:52:06.173Z,24.99
2023-08-08T08:54:36.790Z,25.15
2023-08-08T08:57:06.478Z,25.20
2023-08-08T08:59:33.853Z,25.20
2023-08-08T09:02:01.448Z,25.38
2023-08-08T09:04:30.390Z,24.92
2023-08-08T09:06:59.091Z,24.94
2023-08-08T09:09:26.083Z,25.61
2023-08-08T09:11:57.314Z,25.64
2023-08-08T09:14:24.831Z,25.92
2023-08-08T09:16:54.474Z,26.14
2023-08-08T09:19:22.687Z,26.07
2023-08-08T09:21:51.139Z,25.80
2023-08-08T09:24:18.673Z,26.22
2023-08-08T09:26:46.287Z,26.33
2023-08-08T09:29:16.003Z,26.34
2023-08-08T09:31:42.866Z,26.41
2023-08-08T09:34:10.361Z,26.56
2023-08-08T09:36:38.071Z,26.50
2023-08-08T09:39:09.269Z,26.49
2023-08-08T09:41:47.293Z,26.73
2023-08-08T09:44:14.524Z,27.05
2023-08-08T09:46:41.513Z,26.13
2023-08-08T09:49:14.111Z,27.19
2023-08-08T09:51:41.395Z,27.29
2023-08-08T09:54:09.288Z,27.39
2023-08-08T09:56:37.222Z,27.74
2023-08-08T09:59:06.684Z,27.79
2023-08-08T10:01:34.093Z,27.66
2023-08-08T10:04:01.149Z,27.82
2023-08-08T10:06:27.947Z,28.30
2023-08-08T10:08:58.298Z,28.08
2023-08-08T10:11:26.360Z,28.52
2023-08-08T10:13:56.259Z,28.31
2023-08-08T10:16:24.700Z,28.83
2023-08-08T10:19:04.888Z,28.93
2023-08-08T10:21:44.246Z,28.73
2023-08-08T10:24:14.775Z,29.03
2023-08-08T10:27:01.687Z,29.25
2023-08-08T10:29:32.341Z,28.89
2023-08-08T10:32:06.894Z,29.25
2023-08-08T10:34:50.642Z,29.50
2023-08-08T10:37:25.554Z,29.32
2023-08-08T10:39:58.778Z,29.86
2023-08-08T10:42:30.236Z,30.11
2023-08-08T10:44:59.422Z,30.32
2023-08-08T10:47:43.080Z,30.39
2023-08-08T10:50:12.812Z,30.69
2023-08-08T10:52:54.011Z,30.49
2023-08-08T10:55:24.796Z,30.80
2023-08-08T10:58:09.642Z,30.80
2023-08-08T11:00:46.521Z,30.59
2023-08-08T11:03:13.783Z,31.04
2023-08-08T11:05:47.902Z,31.15
2023-08-08T11:08:16.199Z,31.40
2023-08-08T11:10:45.777Z,31.67
2023-08-08T11:13:13.003Z,31.83
2023-08-08T11:15:40.502Z,32.21
2023-08-08T11:18:18.435Z,32.20
2023-08-08T11:20:48.037Z,32.48
2023-08-08T11:23:15.674Z,32.56
2023-08-08T11:25:47.080Z,32.42
2023-08-08T11:28:17.546Z,32.34
2023-08-08T11:30:47.945Z,32.44
2023-08-08T11:33:16.512Z,32.73
2023-08-08T11:35:49.533Z,32.51
2023-08-08T11:38:24.269Z,33.07
2023-08-08T11:40:56.857Z,33.26
2023-08-08T11:43:23.933Z,33.48
2023-08-08T11:45:50.783Z,33.22
2023-08-08T11:48:17.706Z,33.75
2023-08-08T11:50:45.855Z,33.95
2023-08-08T11:53:14.809Z,33.91
2023-08-08T11:55:42.484Z,33.90
2023-08-08T11:58:14.838Z,33.46
2023-08-08T12:00:49.388Z,34.20
2023-08-08T12:03:22.817Z,34.29
2023-08-08T12:05:50.141Z,34.46
2023-08-08T12:08:25.272Z,34.40
2023-08-08T12:10:58.148Z,34.62
2023-08-08T12:13:30.025Z,34.81
2023-08-08T12:18:31.629Z,34.66
2023-08-08T12:20:58.455Z,34.78
2023-08-08T12:23:28.308Z,34.68
2023-08-08T12:25:55.099Z,34.91
2023-08-08T12:28:21.930Z,35.03
2023-08-08T12:30:48.630Z,35.19
2023-08-08T12:33:15.554Z,35.49
2023-08-08T12:35:42.530Z,35.80
2023-08-08T12:38:11.440Z,35.88
2023-08-08T12:40:38.647Z,35.85
2023-08-08T12:43:05.348Z,36.06
2023-08-08T12:45:32.153Z,36.10
2023-08-08T12:47:59.051Z,35.57
2023-08-08T12:50:25.927Z,35.84
2023-08-08T12:52:52.721Z,36.55
2023-08-08T12:55:20.958Z,36.91
2023-08-08T12:57:56.957Z,37.06
2023-08-08T13:00:31.538Z,37.06
2023-08-08T13:03:05.952Z,37.28
2023-08-08T13:05:32.752Z,37.50
2023-08-08T13:08:03.615Z,37.52
2023-08-08T13:10:32.035Z,37.43
2023-08-08T13:13:06.273Z,37.15
2023-08-08T13:15:37.194Z,37.75
2023-08-08T13:18:07.910Z,37.90
2023-08-08T13:20:34.819Z,37.33
2023-08-08T13:23:01.546Z,38.13
2023-08-08T13:25:35.466Z,38.15
2023-08-08T13:28:04.330Z,38.15
2023-08-08T13:30:31.577Z,38.01
2023-08-08T13:33:00.718Z,38.23
2023-08-08T13:35:29.126Z,38.48
2023-08-08T13:37:56.019Z,38.33
2023-08-08T13:40:22.728Z,38.32
2023-08-08T13:42:53.390Z,38.17
2023-08-08T13:45:21.589Z,37.59
2023-08-08T13:47:51.834Z,36.89
2023-08-08T13:50:22.562Z,36.39
2023-08-08T13:52:49.656Z,36.09
2023-08-08T13:55:16.584Z,35.70
2023-08-08T13:57:47.219Z,35.46
2023-08-08T14:00:13.962Z,35.16
2023-08-08T14:02:40.754Z,35.02
2023-08-08T14:05:08.078Z,34.86
2023-08-08T14:07:36.569Z,34.73
2023-08-08T14:10:05.049Z,34.37
2023-08-08T14:12:32.136Z,34.14
2023-08-08T14:14:58.968Z,34.17
2023-08-08T14:17:25.834Z,34.02
2023-08-08T14:19:55.120Z,33.94
2023-08-08T14:22:25.049Z,33.54
2023-08-08T14:24:51.738Z,33.63
2023-08-08T14:27:18.822Z,33.71
2023-08-08T14:29:45.627Z,33.66
2023-08-08T14:32:12.395Z,33.61
2023-08-08T14:34:42.244Z,32.91
2023-08-08T14:37:09.137Z,33.15
2023-08-08T14:39:43.982Z,33.50
2023-08-08T14:42:10.805Z,33.30
2023-08-08T14:44:37.595Z,33.33
2023-08-08T14:47:05.034Z,33.17
2023-08-08T14:49:32.031Z,33.26
2023-08-08T14:51:59.527Z,33.05
2023-08-08T14:54:26.675Z,32.97
2023-08-08T14:56:53.534Z,33.04
2023-08-08T14:59:20.480Z,33.08
2023-08-08T15:01:47.706Z,32.86
2023-08-08T15:04:14.653Z,33.04
2023-08-08T15:06:42.009Z,33.02
2023-08-08T15:09:14.833Z,33.10
2023-08-08T15:11:41.921Z,32.74
2023-08-08T15:14:08.876Z,32.80
2023-08-08T15:16:36.657Z,32.78
2023-08-08T15:19:03.835Z,32.42
2023-08-08T15:21:30.746Z,32.92
2023-08-08T15:23:58.845Z,32.89
2023-08-08T15:26:28.271Z,32.51
2023-08-08T15:28:58.318Z,32.81
2023-08-08T15:31:25.170Z,32.71
2023-08-08T15:33:55.428Z,32.51
2023-08-08T15:36:23.997Z,32.59
2023-08-08T15:38:56.123Z,31.97
2023-08-08T15:41:22.965Z,32.07
2023-08-08T15:43:50.200Z,32.63
2023-08-08T15:46:18.991Z,32.31
2023-08-08T15:48:45.807Z,32.34
2023-08-08T15:51:18.302Z,32.51
2023-08-08T15:53:45.043Z,32.46
2023-08-08T15:56:19.797Z,32.45
2023-08-08T15:58:54.686Z,32.18
2023-08-08T16:01:27.413Z,32.33
2023-08-08T16:03:54.393Z,32.21
2023-08-08T16:06:25.298Z,31.77
2023-08-08T16:08:53.082Z,32.10
2023-08-08T16:11:19.871Z,31.76
2023-08-08T16:13:49.750Z,31.83
2023-08-08T16:16:16.469Z,30.75
2023-08-08T16:18:43.632Z,31.41
2023-08-08T16:21:10.551Z,31.19
2023-08-08T16:23:37.328Z,31.84
2023-08-08T16:26:06.634Z,31.58
2023-08-08T16:28:39.768Z,31.70
2023-08-08T16:31:11.641Z,31.54
2023-08-08T16:33:41.646Z,31.33
2023-08-08T16:36:09.509Z,31.49
2023-08-08T16:38:37.640Z,31.21
2023-08-08T16:41:04.775Z,31.30
2023-08-08T16:43:34.022Z,31.29
2023-08-08T16:46:07.368Z,31.07
2023-08-08T16:48:34.159Z,30.75
2023-08-08T16:51:00.868Z,30.39
2023-08-08T16:53:27.576Z,31.15
2023-08-08T16:55:54.556Z,31.07
2023-08-08T16:58:21.843Z,31.04
2023-08-08T17:03:23.600Z,31.04
2023-08-08T17:05:50.268Z,30.43
2023-08-08T17:08:16.889Z,30.93
2023-08-08T17:10:43.732Z,30.67
2023-08-08T17:13:10.443Z,30.79
2023-08-08T17:15:37.254Z,30.64
2023-08-08T17:18:07.140Z,30.71
2023-08-08T17:20:34.145Z,30.67
2023-08-08T17:23:00.850Z,30.48
2023-08-08T17:25:27.872Z,30.32
2023-08-08T17:27:54.594Z,30.48
2023-08-08T17:30:22.709Z,30.47
2023-08-08T17:32:50.557Z,30.11
2023-08-08T17:35:17.405Z,30.38
2023-08-08T17:37:44.221Z,30.25
2023-08-08T17:40:11.299Z,30.50
2023-08-08T17:42:38.541Z,30.37
2023-08-08T17:45:06.061Z,30.09
2023-08-08T17:47:32.931Z,30.08
2023-08-08T17:50:01.746Z,30.24
2023-08-08T17:52:28.386Z,29.81
2023-08-08T17:54:59.833Z,29.92
2023-08-08T17:57:30.819Z,30.02
2023-08-08T18:00:05.775Z,29.60
2023-08-08T18:02:32.588Z,29.91
2023-08-08T18:04:59.590Z,29.66
2023-08-08T18:07:29.362Z,29.82
2023-08-08T18:09:57.413Z,29.84
2023-08-08T18:12:24.278Z,29.36
2023-08-08T18:14:55.099Z,29.50
2023-08-08T18:17:28.832Z,29.34
2023-08-08T18:19:58.509Z,29.13
2023-08-08T18:22:34.372Z,29.02
2023-08-08T18:25:01.201Z,28.98
2023-08-08T18:27:28.138Z,29.14
2023-08-08T18:29:55.900Z,28.92
2023-08-08T18:32:22.763Z,29.18
2023-08-08T18:34:52.242Z,29.25
2023-08-08T18:37:18.951Z,28.88
2023-08-08T18:39:45.999Z,28.89
2023-08-08T18:42:12.628Z,28.93
2023-08-08T18:44:42.642Z,28.55
2023-08-08T18:47:20.239Z,28.69
2023-08-08T18:49:50.422Z,28.55
2023-08-08T18:52:17.715Z,28.60
2023-08-08T18:54:44.331Z,28.63
2023-08-08T18:57:11.082Z,28.53
2023-08-08T18:59:46.667Z,28.55
2023-08-08T19:02:18.737Z,28.49
2023-08-08T19:04:48.252Z,28.58
2023-08-08T19:07:15.049Z,28.53
2023-08-08T19:09:47.476Z,28.29
2023-08-08T19:12:14.484Z,28.23
2023-08-08T19:14:41.354Z,28.22
2023-08-08T19:17:08.158Z,28.11
2023-08-08T19:19:37.598Z,28.20
2023-08-08T19:22:12.003Z,28.02
2023-08-08T19:24:39.194Z,27.94
2023-08-08T19:27:07.416Z,27.85
2023-08-08T19:29:34.189Z,27.92
2023-08-08T19:32:02.449Z,28.02
2023-08-08T19:34:29.447Z,27.93
2023-08-08T19:36:59.365Z,27.31
2023-08-08T19:39:26.372Z,27.85
2023-08-08T19:41:53.194Z,27.88
2023-08-08T19:44:20.275Z,27.85
2023-08-08T19:46:53.006Z,27.56
2023-08-08T19:49:19.975Z,27.70
2023-08-08T19:51:48.108Z,27.67
2023-08-08T19:54:18.599Z,27.60
2023-08-08T19:56:46.209Z,27.56
2023-08-08T19:59:16.039Z,27.43
2023-08-08T20:01:42.843Z,27.63
2023-08-08T20:04:10.063Z,27.42
2023-08-08T20:06:40.086Z,27.53
2023-08-08T20:09:07.323Z,26.79
2023-08-08T20:11:44.251Z,27.15
2023-08-08T20:14:11.358Z,27.32
2023-08-08T20:16:38.176Z,27.24
2023-08-08T20:19:05.606Z,26.02
2023-08-08T20:21:33.610Z,26.96
2023-08-08T20:24:00.475Z,26.94
2023-08-08T20:26:27.756Z,26.87
2023-08-08T20:28:54.634Z,27.00
2023-08-08T20:31:26.633Z,27.02
2023-08-08T20:34:02.779Z,26.66
2023-08-08T20:36:36.973Z,26.90
2023-08-08T20:39:05.678Z,26.67
2023-08-08T20:41:40.561Z,27.07
2023-08-08T20:44:08.196Z,26.77
2023-08-08T20:46:38.250Z,26.88
2023-08-08T20:49:08.475Z,26.77
2023-08-08T20:51:50.967Z,26.71
2023-08-08T20:54:18.434Z,26.58
2023-08-08T20:57:00.711Z,26.34
2023-08-08T20:59:30.193Z,26.58
2023-08-08T21:02:00.050Z,26.45
2023-08-08T21:04:27.503Z,26.15
2023-08-08T21:06:55.014Z,26.37
2023-08-08T21:09:24.948Z,26.32
2023-08-08T21:11:52.313Z,26.29
2023-08-08T21:14:19.148Z,26.18
2023-08-08T21:16:55.077Z,26.15
2023-08-08T21:19:29.692Z,26.14
2023-08-08T21:21:57.458Z,25.12
2023-08-08T21:24:27.478Z,26.27
2023-08-08T21:26:54.863Z,26.17
2023-08-08T21:29:22.084Z,25.69
2023-08-08T21:31:52.369Z,25.80
2023-08-08T21:34:19.107Z,26.04
2023-08-08T21:36:46.069Z,25.80
2023-08-08T21:39:12.851Z,25.89
2023-08-08T21:41:40.061Z,25.90
2023-08-08T21:44:07.148Z,25.87
2023-08-08T21:46:33.982Z,25.46
2023-08-08T21:49:02.075Z,25.74
2023-08-08T21:51:29.475Z,25.70
2023-08-08T21:53:56.497Z,25.87
2023-08-08T21:56:23.398Z,25.37
2023-08-08T21:58:56.604Z,25.95
2023-08-08T22:01:23.712Z,25.73
2023-08-08T22:03:51.706Z,25.34
2023-08-08T22:06:18.959Z,25.47
2023-08-08T22:08:46.334Z,25.38
2023-08-08T22:11:13.999Z,25.44
2023-08-08T22:13:41.410Z,25.25
2023-08-08T22:16:16.134Z,25.20
2023-08-08T22:18:43.249Z,25.20
2023-08-08T22:21:11.597Z,25.22
2023-08-08T22:23:38.789Z,25.18
2023-08-08T22:26:05.636Z,25.19
2023-08-08T22:28:36.428Z,25.10
2023-08-08T22:31:03.799Z,25.14
2023-08-08T22:33:33.880Z,25.14
2023-08-08T22:36:01.896Z,25.07
2023-08-08T22:38:33.342Z,25.03
2023-08-08T22:41:04.208Z,24.67
2023-08-08T22:43:31.086Z,24.98
2023-08-08T22:45:57.818Z,24.99
2023-08-08T22:48:24.818Z,24.93
2023-08-08T22:50:54.702Z,24.84
2023-08-08T22:53:30.609Z,24.82
2023-08-08T22:55:57.698Z,24.84
2023-08-08T22:58:24.460Z,24.58
2023-08-08T23:00:51.719Z,24.77
2023-08-08T23:03:19.576Z,24.49
2023-08-08T23:05:47.706Z,24.70
2023-08-08T23:08:29.342Z,24.76
2023-08-08T23:10:57.946Z,24.72
2023-08-08T23:13:25.153Z,24.70
2023-08-08T23:15:52.270Z,24.65
2023-08-08T23:18:19.439Z,23.95
2023-08-08T23:20:49.090Z,24.44
2023-08-08T23:23:17.048Z,24.34
2023-08-08T23:25:43.949Z,24.18
2023-08-08T23:28:18.693Z,24.39
2023-08-08T23:30:47.899Z,24.53
2023-08-08T23:33:18.262Z,24.46
2023-08-08T23:35:45.910Z,24.23
2023-08-08T23:38:12.850Z,24.49
2023-08-08T23:40:45.658Z,24.07
2023-08-08T23:43:12.390Z,24.49
2023-08-08T23:45:39.314Z,24.40
2023-08-08T23:48:06.285Z,24.18
2023-08-08T23:50:33.212Z,24.42
2023-08-08T23:52:59.984Z,24.39
2023-08-08T23:55:37.660Z,24.42
2023-08-08T23:58:12.839Z,24.37
